createdAt,value
2018-08-17T00:00:01.668Z,17.80
2018-08-17T00:02:29.527Z,17.80
2018-08-17T00:04:57.151Z,17.80
2018-08-17T00:07:24.735Z,17.80
2018-08-17T00:09:52.636Z,17.70
2018-08-17T00:12:20.232Z,17.70
2018-08-17T00:14:48.040Z,17.70
2018-08-17T00:17:15.648Z,17.60
2018-08-17T00:19:43.274Z,17.60
2018-08-17T00:22:10.881Z,17.60
2018-08-17T00:24:38.454Z,17.50
2018-08-17T00:27:06.064Z,17.40
2018-08-17T00:29:33.640Z,17.40
2018-08-17T00:32:01.253Z,17.40
2018-08-17T00:34:28.836Z,17.40
2018-08-17T00:36:56.413Z,17.40
2018-08-17T00:39:24.048Z,17.30
2018-08-17T00:41:51.604Z,17.30
2018-08-17T00:44:19.201Z,17.20
2018-08-17T00:46:46.780Z,17.20
2018-08-17T00:49:14.385Z,17.20
2018-08-17T00:51:41.987Z,17.20
2018-08-17T00:54:09.790Z,17.20
2018-08-17T00:56:37.369Z,17.10
2018-08-17T00:59:04.947Z,17.10
2018-08-17T01:01:32.546Z,17.00
2018-08-17T01:04:00.124Z,16.90
2018-08-17T01:06:27.699Z,16.90
2018-08-17T01:08:55.297Z,16.90
2018-08-17T01:11:22.913Z,16.90
2018-08-17T01:13:50.532Z,16.90
2018-08-17T01:16:18.148Z,16.80
2018-08-17T01:18:45.958Z,16.80
2018-08-17T01:21:14.156Z,16.80
2018-08-17T01:23:41.769Z,16.70
2018-08-17T01:26:09.348Z,16.60
2018-08-17T01:28:36.925Z,16.60
2018-08-17T01:31:04.632Z,16.50
2018-08-17T01:33:32.317Z,16.50
2018-08-17T01:36:00.195Z,16.50
2018-08-17T01:38:27.840Z,16.50
2018-08-17T01:40:55.403Z,16.50
2018-08-17T01:43:22.991Z,16.50
2018-08-17T01:45:50.589Z,16.50
2018-08-17T01:48:18.149Z,16.40
2018-08-17T01:50:45.824Z,16.30
2018-08-17T01:53:13.396Z,16.30
2018-08-17T01:55:41.008Z,16.30
2018-08-17T01:58:09.741Z,16.30
2018-08-17T02:00:37.361Z,16.30
2018-08-17T02:03:05.010Z,16.30
2018-08-17T02:05:32.631Z,16.30
2018-08-17T02:08:00.203Z,16.20
2018-08-17T02:10:28.103Z,16.20
2018-08-17T02:12:55.654Z,16.10
2018-08-17T02:15:23.452Z,16.10
2018-08-17T02:17:51.052Z,16.00
2018-08-17T02:20:18.594Z,16.00
2018-08-17T02:22:46.157Z,15.90
2018-08-17T02:25:13.776Z,15.90
2018-08-17T02:27:41.369Z,15.90
2018-08-17T02:30:08.993Z,15.90
2018-08-17T02:32:36.561Z,15.90
2018-08-17T02:35:04.573Z,16.00
2018-08-17T02:37:32.259Z,15.90
2018-08-17T02:39:59.797Z,15.90
2018-08-17T02:42:27.387Z,15.80
2018-08-17T02:44:54.968Z,15.70
2018-08-17T02:47:22.544Z,15.70
2018-08-17T02:49:50.496Z,15.60
2018-08-17T02:52:18.080Z,15.60
2018-08-17T02:54:45.632Z,15.60
2018-08-17T02:57:13.591Z,15.50
2018-08-17T02:59:41.243Z,15.50
2018-08-17T03:02:09.185Z,15.50
2018-08-17T03:04:36.733Z,15.40
2018-08-17T03:07:04.361Z,15.40
2018-08-17T03:09:31.941Z,15.40
2018-08-17T03:11:59.500Z,15.40
2018-08-17T03:14:27.084Z,15.30
2018-08-17T03:16:54.647Z,15.40
2018-08-17T03:19:22.215Z,15.40
2018-08-17T03:21:49.817Z,15.30
2018-08-17T03:24:17.359Z,15.30
2018-08-17T03:26:44.913Z,15.20
2018-08-17T03:29:12.528Z,15.10
2018-08-17T03:31:40.083Z,15.10
2018-08-17T03:34:07.620Z,15.10
2018-08-17T03:36:35.216Z,15.10
2018-08-17T03:39:03.115Z,15.10
2018-08-17T03:41:30.664Z,15.10
2018-08-17T03:43:58.194Z,15.00
2018-08-17T03:46:25.830Z,15.00
2018-08-17T03:48:53.379Z,15.00
2018-08-17T03:51:20.944Z,15.00
2018-08-17T03:53:48.555Z,15.00
2018-08-17T03:56:16.143Z,14.90
2018-08-17T03:58:43.741Z,14.90
2018-08-17T04:01:11.527Z,14.90
2018-08-17T04:03:39.089Z,14.90
2018-08-17T04:06:06.720Z,14.80
2018-08-17T04:08:34.299Z,14.80
2018-08-17T04:11:01.831Z,14.90
2018-08-17T04:13:29.633Z,14.90
2018-08-17T04:15:57.452Z,14.80
2018-08-17T04:18:25.316Z,14.80
2018-08-17T04:20:53.124Z,14.80
2018-08-17T04:23:20.793Z,14.80
2018-08-17T04:25:48.544Z,14.80
2018-08-17T04:28:16.772Z,14.90
2018-08-17T04:30:44.641Z,14.90
2018-08-17T04:33:12.324Z,14.90
2018-08-17T04:35:40.001Z,14.90
2018-08-17T04:38:07.637Z,14.90
2018-08-17T04:40:35.424Z,14.90
2018-08-17T04:43:03.000Z,15.00
2018-08-17T04:45:30.588Z,15.10
2018-08-17T04:47:58.124Z,15.20
2018-08-17T04:50:25.707Z,15.20
2018-08-17T04:52:53.270Z,15.30
2018-08-17T04:55:20.836Z,15.30
2018-08-17T04:57:48.472Z,15.40
2018-08-17T05:00:16.018Z,15.40
2018-08-17T05:02:43.591Z,15.40
2018-08-17T05:05:11.192Z,15.40
2018-08-17T05:07:39.456Z,15.40
2018-08-17T05:10:07.864Z,15.40
2018-08-17T05:12:35.453Z,15.50
2018-08-17T05:15:03.107Z,15.50
2018-08-17T05:17:30.764Z,15.50
2018-08-17T05:19:58.425Z,15.60
2018-08-17T05:22:25.967Z,15.60
2018-08-17T05:24:53.551Z,15.70
2018-08-17T05:27:21.113Z,15.70
2018-08-17T05:29:48.723Z,15.80
2018-08-17T05:32:16.533Z,15.80
2018-08-17T05:34:44.092Z,15.90
2018-08-17T05:37:11.700Z,15.90
2018-08-17T05:39:39.240Z,15.90
2018-08-17T05:42:06.965Z,16.00
2018-08-17T05:44:34.879Z,16.00
2018-08-17T05:47:02.434Z,16.00
2018-08-17T05:49:30.304Z,16.10
2018-08-17T05:51:57.908Z,16.10
2018-08-17T05:54:25.548Z,16.10
2018-08-17T05:56:53.132Z,16.20
2018-08-17T05:59:20.691Z,16.20
2018-08-17T06:01:48.275Z,16.20
2018-08-17T06:04:15.853Z,16.30
2018-08-17T06:06:43.429Z,16.20
2018-08-17T06:09:11.064Z,16.30
2018-08-17T06:11:38.673Z,16.30
2018-08-17T06:14:13.276Z,16.40
2018-08-17T06:16:40.879Z,16.50
2018-08-17T06:19:08.584Z,16.60
2018-08-17T06:21:36.343Z,16.70
2018-08-17T06:24:04.043Z,16.80
2018-08-17T06:26:38.397Z,16.90
2018-08-17T06:29:06.049Z,17.00
2018-08-17T06:31:33.712Z,17.10
2018-08-17T06:34:01.375Z,17.20
2018-08-17T06:36:28.964Z,17.30
2018-08-17T06:38:56.588Z,17.40
2018-08-17T06:41:24.184Z,17.50
2018-08-17T06:43:51.727Z,17.60
2018-08-17T06:46:19.472Z,17.70
2018-08-17T06:48:47.097Z,17.80
2018-08-17T06:51:14.718Z,17.90
2018-08-17T06:53:42.371Z,17.90
2018-08-17T06:56:09.944Z,18.00
2018-08-17T06:58:37.801Z,18.10
2018-08-17T07:01:05.580Z,18.20
2018-08-17T07:03:33.189Z,18.40
2018-08-17T07:06:01.168Z,18.50
2018-08-17T07:08:28.752Z,18.50
2018-08-17T07:10:56.368Z,18.60
2018-08-17T07:13:24.039Z,18.80
2018-08-17T07:15:51.799Z,18.90
2018-08-17T07:18:20.255Z,19.00
2018-08-17T07:20:48.037Z,19.00
2018-08-17T07:23:16.014Z,19.10
2018-08-17T07:25:43.983Z,19.20
2018-08-17T07:28:11.635Z,19.20
2018-08-17T07:30:39.175Z,19.30
2018-08-17T07:33:06.834Z,19.50
2018-08-17T07:35:34.609Z,19.60
2018-08-17T07:38:02.245Z,19.80
2018-08-17T07:40:30.240Z,19.90
2018-08-17T07:42:58.282Z,19.90
2018-08-17T07:45:26.204Z,19.90
2018-08-17T07:47:54.264Z,20.00
2018-08-17T07:50:22.038Z,20.20
2018-08-17T07:52:49.897Z,20.30
2018-08-17T07:55:17.585Z,20.40
2018-08-17T07:57:45.243Z,20.60
2018-08-17T08:00:13.284Z,20.80
2018-08-17T08:02:40.911Z,20.90
2018-08-17T08:05:09.839Z,21.10
2018-08-17T08:07:38.033Z,21.20
2018-08-17T08:10:06.180Z,21.30
2018-08-17T08:12:34.263Z,21.60
2018-08-17T08:15:01.923Z,21.70
2018-08-17T08:17:29.729Z,21.90
2018-08-17T08:20:09.062Z,22.00
2018-08-17T08:22:37.508Z,22.10
2018-08-17T08:25:05.434Z,22.20
2018-08-17T08:27:34.528Z,22.30
2018-08-17T08:30:02.191Z,22.40
2018-08-17T08:32:30.925Z,22.40
2018-08-17T08:34:58.806Z,22.40
2018-08-17T08:37:26.408Z,22.50
2018-08-17T08:39:54.149Z,22.70
2018-08-17T08:42:21.743Z,22.80
2018-08-17T08:44:49.315Z,23.00
2018-08-17T08:47:16.887Z,23.20
2018-08-17T08:49:44.467Z,23.30
2018-08-17T08:52:11.995Z,23.50
2018-08-17T08:54:39.956Z,23.60
2018-08-17T08:57:07.601Z,23.80
2018-08-17T08:59:35.240Z,23.90
2018-08-17T09:02:03.760Z,23.90
2018-08-17T09:04:31.439Z,23.90
2018-08-17T09:06:59.220Z,23.90
2018-08-17T09:09:27.002Z,23.90
2018-08-17T09:11:54.684Z,24.10
2018-08-17T09:14:22.598Z,24.30
2018-08-17T09:16:50.191Z,24.50
2018-08-17T09:19:18.001Z,24.80
2018-08-17T09:21:45.689Z,24.90
2018-08-17T09:24:14.261Z,25.00
2018-08-17T09:26:41.976Z,25.10
2018-08-17T09:29:10.039Z,25.30
2018-08-17T09:31:37.632Z,25.50
2018-08-17T09:34:05.328Z,25.80
2018-08-17T09:36:33.361Z,26.10
2018-08-17T09:39:01.344Z,26.40
2018-08-17T09:41:28.958Z,26.60
2018-08-17T09:43:57.792Z,26.70
2018-08-17T09:46:25.517Z,26.80
2018-08-17T09:48:53.939Z,26.80
2018-08-17T09:51:21.782Z,26.80
2018-08-17T09:53:49.441Z,26.60
2018-08-17T09:56:17.080Z,26.50
2018-08-17T09:58:44.949Z,26.50
2018-08-17T10:01:19.481Z,27.10
2018-08-17T10:03:53.037Z,27.40
2018-08-17T10:06:27.369Z,27.70
2018-08-17T10:09:00.703Z,27.70
2018-08-17T10:11:28.630Z,27.90
2018-08-17T10:13:56.596Z,28.20
2018-08-17T10:16:24.389Z,28.30
2018-08-17T10:18:52.492Z,28.50
2018-08-17T10:21:20.307Z,28.70
2018-08-17T10:23:47.932Z,28.50
2018-08-17T10:26:15.561Z,28.30
2018-08-17T10:28:43.347Z,28.00
2018-08-17T10:31:11.677Z,27.70
2018-08-17T10:33:39.371Z,27.40
2018-08-17T10:36:13.741Z,27.30
2018-08-17T10:38:41.312Z,27.10
2018-08-17T10:41:09.005Z,27.00
2018-08-17T10:43:37.379Z,26.90
2018-08-17T10:46:05.281Z,26.90
2018-08-17T10:48:33.142Z,26.90
2018-08-17T10:51:00.844Z,27.00
2018-08-17T10:53:36.068Z,27.00
2018-08-17T10:56:03.974Z,26.90
2018-08-17T10:58:34.491Z,26.90
2018-08-17T11:01:02.163Z,27.00
2018-08-17T11:03:29.912Z,27.10
2018-08-17T11:05:57.481Z,27.10
2018-08-17T11:08:25.199Z,27.10
2018-08-17T11:10:52.831Z,27.10
2018-08-17T11:13:20.442Z,27.00
2018-08-17T11:15:48.015Z,27.00
2018-08-17T11:23:10.526Z,26.80
2018-08-17T11:25:38.636Z,26.60
2018-08-17T11:28:06.542Z,26.60
2018-08-17T11:30:34.674Z,26.50
2018-08-17T11:33:02.565Z,26.60
2018-08-17T11:35:30.389Z,26.50
2018-08-17T11:37:58.312Z,26.50
2018-08-17T11:40:26.159Z,26.50
2018-08-17T11:42:53.768Z,26.50
2018-08-17T11:45:24.543Z,26.50
2018-08-17T11:47:52.841Z,26.50
2018-08-17T11:50:21.508Z,26.50
2018-08-17T11:52:56.099Z,26.50
2018-08-17T11:55:24.852Z,26.50
2018-08-17T11:57:53.019Z,26.50
2018-08-17T12:00:21.262Z,26.50
2018-08-17T12:02:48.897Z,26.50
2018-08-17T12:05:16.504Z,26.50
2018-08-17T12:07:45.004Z,26.60
2018-08-17T12:10:12.638Z,26.70
2018-08-17T12:12:41.200Z,26.70
2018-08-17T12:15:09.916Z,26.80
2018-08-17T12:17:37.716Z,26.70
2018-08-17T12:20:05.504Z,26.80
2018-08-17T12:22:33.196Z,26.80
2018-08-17T12:25:01.282Z,26.90
2018-08-17T12:27:29.194Z,26.90
2018-08-17T12:29:56.845Z,27.10
2018-08-17T12:32:24.775Z,27.40
2018-08-17T12:34:52.459Z,27.70
2018-08-17T12:37:20.162Z,27.80
2018-08-17T12:39:47.979Z,27.90
2018-08-17T12:42:15.768Z,27.90
2018-08-17T12:44:43.380Z,28.00
2018-08-17T12:47:11.001Z,28.10
2018-08-17T12:49:38.730Z,28.30
2018-08-17T12:52:07.422Z,28.40
2018-08-17T12:54:35.305Z,28.50
2018-08-17T12:57:04.008Z,28.40
2018-08-17T12:59:32.629Z,28.50
2018-08-17T13:02:00.407Z,28.50
2018-08-17T13:04:28.392Z,28.50
2018-08-17T13:06:56.544Z,28.30
2018-08-17T13:09:24.077Z,28.30
2018-08-17T13:11:55.169Z,28.30
2018-08-17T13:14:23.511Z,28.20
2018-08-17T13:16:51.471Z,28.20
2018-08-17T13:19:19.155Z,28.20
2018-08-17T13:21:46.730Z,28.20
2018-08-17T13:24:14.345Z,28.10
2018-08-17T13:26:41.932Z,28.20
2018-08-17T13:29:09.564Z,28.30
2018-08-17T13:31:37.116Z,28.50
2018-08-17T13:34:04.817Z,28.50
2018-08-17T13:36:32.420Z,28.50
2018-08-17T13:39:00.151Z,28.50
2018-08-17T13:41:27.748Z,28.40
2018-08-17T13:43:55.370Z,28.40
2018-08-17T13:46:22.964Z,28.40
2018-08-17T13:48:50.559Z,28.40
2018-08-17T13:51:18.135Z,28.40
2018-08-17T13:53:45.713Z,28.40
2018-08-17T13:56:13.273Z,28.40
2018-08-17T13:58:40.919Z,28.40
2018-08-17T14:01:08.499Z,28.40
2018-08-17T14:03:36.222Z,28.40
2018-08-17T14:06:04.252Z,28.40
2018-08-17T14:08:31.817Z,28.40
2018-08-17T14:10:59.492Z,28.40
2018-08-17T14:13:27.159Z,28.30
2018-08-17T14:15:54.844Z,28.30
2018-08-17T14:18:22.541Z,28.30
2018-08-17T14:20:50.395Z,28.20
2018-08-17T14:23:18.001Z,28.20
2018-08-17T14:25:45.528Z,28.00
2018-08-17T14:28:13.429Z,27.90
2018-08-17T14:30:40.988Z,27.80
2018-08-17T14:33:09.015Z,27.70
2018-08-17T14:35:36.594Z,27.60
2018-08-17T14:38:04.231Z,27.40
2018-08-17T14:40:31.950Z,27.40
2018-08-17T14:43:00.449Z,27.30
2018-08-17T14:45:28.309Z,27.10
2018-08-17T14:47:56.059Z,26.80
2018-08-17T14:50:23.746Z,26.50
2018-08-17T14:52:51.569Z,26.30
2018-08-17T14:55:19.516Z,26.10
2018-08-17T14:57:47.155Z,25.90
2018-08-17T15:00:15.121Z,25.90
2018-08-17T15:02:43.042Z,25.80
2018-08-17T15:05:13.069Z,25.80
2018-08-17T15:07:41.063Z,25.70
2018-08-17T15:10:10.668Z,25.40
2018-08-17T15:12:38.469Z,25.30
2018-08-17T15:15:06.573Z,25.30
2018-08-17T15:17:34.233Z,25.20
2018-08-17T15:20:01.901Z,25.20
2018-08-17T15:22:29.584Z,25.10
2018-08-17T15:24:57.338Z,24.80
2018-08-17T15:27:25.041Z,24.60
2018-08-17T15:29:52.716Z,24.50
2018-08-17T15:32:20.465Z,24.40
2018-08-17T15:34:48.092Z,24.40
2018-08-17T15:37:16.385Z,24.20
2018-08-17T15:39:44.644Z,24.10
2018-08-17T15:42:12.345Z,24.20
2018-08-17T15:44:40.181Z,24.20
2018-08-17T15:47:07.853Z,24.10
2018-08-17T15:49:36.333Z,24.00
2018-08-17T15:52:05.415Z,24.10
2018-08-17T15:54:34.317Z,24.00
2018-08-17T15:57:02.090Z,24.00
2018-08-17T15:59:29.949Z,23.90
2018-08-17T16:01:58.172Z,23.90
2018-08-17T16:04:25.884Z,23.90
2018-08-17T16:06:53.666Z,23.80
2018-08-17T16:09:21.264Z,23.80
2018-08-17T16:11:50.492Z,23.80
2018-08-17T16:14:18.351Z,23.90
2018-08-17T16:16:46.542Z,23.80
2018-08-17T16:19:14.228Z,23.80
2018-08-17T16:21:41.844Z,23.70
2018-08-17T16:24:09.778Z,23.70
2018-08-17T16:26:37.491Z,23.70
2018-08-17T16:29:05.673Z,23.70
2018-08-17T16:31:35.931Z,23.70
2018-08-17T16:34:03.874Z,23.70
2018-08-17T16:36:33.815Z,23.80
2018-08-17T16:39:02.622Z,23.90
2018-08-17T16:41:30.273Z,24.00
2018-08-17T16:43:58.542Z,24.00
2018-08-17T16:46:27.210Z,24.00
2018-08-17T16:48:54.915Z,24.10
2018-08-17T16:51:22.578Z,24.00
2018-08-17T16:53:50.416Z,23.90
2018-08-17T16:56:18.386Z,24.00
2018-08-17T16:58:46.364Z,24.00
2018-08-17T17:01:14.162Z,24.00
2018-08-17T17:03:41.927Z,23.90
2018-08-17T17:06:10.070Z,23.90
2018-08-17T17:08:37.768Z,23.80
2018-08-17T17:11:05.394Z,23.80
2018-08-17T17:13:38.072Z,23.90
2018-08-17T17:16:05.909Z,23.80
2018-08-17T17:18:34.302Z,23.60
2018-08-17T17:21:02.447Z,23.40
2018-08-17T17:23:30.104Z,23.40
2018-08-17T17:25:57.753Z,23.50
2018-08-17T17:28:32.239Z,23.50
2018-08-17T17:30:59.996Z,23.60
2018-08-17T17:33:27.564Z,23.50
2018-08-17T17:35:55.111Z,23.60
2018-08-17T17:38:23.354Z,23.60
2018-08-17T17:40:51.034Z,23.60
2018-08-17T17:43:18.782Z,23.50
2018-08-17T17:45:46.612Z,23.40
2018-08-17T17:48:14.287Z,23.30
2018-08-17T17:50:41.875Z,23.40
2018-08-17T17:53:09.612Z,23.40
2018-08-17T17:55:43.954Z,23.30
2018-08-17T17:58:11.864Z,23.20
2018-08-17T18:00:40.992Z,23.20
2018-08-17T18:03:08.659Z,23.20
2018-08-17T18:05:36.277Z,23.20
2018-08-17T18:08:09.391Z,23.10
2018-08-17T18:10:37.535Z,23.10
2018-08-17T18:13:05.202Z,23.20
2018-08-17T18:15:32.986Z,23.10
2018-08-17T18:18:00.789Z,22.80
2018-08-17T18:20:28.559Z,22.60
2018-08-17T18:22:56.314Z,22.50
2018-08-17T18:25:24.105Z,22.50
2018-08-17T18:27:51.925Z,22.50
2018-08-17T18:30:20.160Z,22.50
2018-08-17T18:32:47.772Z,22.70
2018-08-17T18:35:15.744Z,22.60
2018-08-17T18:37:43.835Z,22.50
2018-08-17T18:40:11.935Z,22.50
2018-08-17T18:42:39.700Z,22.50
2018-08-17T18:45:07.816Z,22.50
2018-08-17T18:47:36.243Z,22.50
2018-08-17T18:50:04.820Z,22.40
2018-08-17T18:52:32.537Z,22.30
2018-08-17T18:55:00.097Z,22.20
2018-08-17T18:57:27.636Z,22.10
2018-08-17T18:59:55.213Z,22.10
2018-08-17T19:02:23.371Z,21.90
2018-08-17T19:04:51.085Z,21.80
2018-08-17T19:07:19.229Z,21.70
2018-08-17T19:09:47.053Z,21.70
2018-08-17T19:12:14.652Z,21.70
2018-08-17T19:14:44.767Z,21.70
2018-08-17T19:17:33.819Z,21.70
2018-08-17T19:20:01.457Z,21.70
2018-08-17T19:22:34.696Z,21.70
2018-08-17T19:25:02.379Z,21.70
2018-08-17T19:27:34.372Z,21.70
2018-08-17T19:30:03.145Z,21.70
2018-08-17T19:32:31.001Z,21.70
2018-08-17T19:34:58.560Z,21.70
2018-08-17T19:37:26.181Z,21.80
2018-08-17T19:39:53.970Z,21.70
2018-08-17T19:42:21.618Z,21.70
2018-08-17T19:44:49.195Z,21.70
2018-08-17T19:47:16.808Z,21.70
2018-08-17T19:49:44.389Z,21.70
2018-08-17T19:52:12.195Z,21.70
2018-08-17T19:54:40.023Z,21.70
2018-08-17T19:57:07.571Z,21.70
2018-08-17T19:59:35.244Z,21.60
2018-08-17T20:02:02.973Z,21.60
2018-08-17T20:04:30.669Z,21.60
2018-08-17T20:06:58.954Z,21.60
2018-08-17T20:09:26.568Z,21.60
2018-08-17T20:11:54.269Z,21.60
2018-08-17T20:14:21.886Z,21.50
2018-08-17T20:16:49.595Z,21.50
2018-08-17T20:19:17.510Z,21.50
2018-08-17T20:21:45.091Z,21.50
2018-08-17T20:24:13.105Z,21.50
2018-08-17T20:26:41.141Z,21.50
2018-08-17T20:29:08.384Z,21.50
2018-08-17T20:31:43.987Z,21.40
2018-08-17T20:34:11.587Z,21.40
2018-08-17T20:36:39.208Z,21.40
2018-08-17T20:39:09.654Z,21.40
2018-08-17T20:41:37.260Z,21.40
2018-08-17T20:44:05.181Z,21.30
2018-08-17T20:46:32.796Z,21.40
2018-08-17T20:49:00.648Z,21.30
2018-08-17T20:51:28.216Z,21.40
2018-08-17T20:53:59.171Z,21.40
2018-08-17T20:56:27.144Z,21.30
2018-08-17T20:58:54.859Z,21.40
2018-08-17T21:01:22.759Z,21.30
2018-08-17T21:03:50.392Z,21.30
2018-08-17T21:06:18.079Z,21.30
2018-08-17T21:08:45.667Z,21.30
2018-08-17T21:11:13.248Z,21.30
2018-08-17T21:13:40.949Z,21.20
2018-08-17T21:16:08.870Z,21.20
2018-08-17T21:18:36.492Z,21.20
2018-08-17T21:21:04.172Z,21.20
2018-08-17T21:23:32.594Z,21.10
2018-08-17T21:26:00.203Z,21.10
2018-08-17T21:28:27.753Z,21.10
2018-08-17T21:30:55.391Z,21.10
2018-08-17T21:33:22.988Z,21.00
2018-08-17T21:35:50.540Z,21.10
2018-08-17T21:38:18.243Z,21.10
2018-08-17T21:40:45.796Z,21.00
2018-08-17T21:43:13.424Z,21.00
2018-08-17T21:45:44.208Z,20.90
2018-08-17T21:48:21.037Z,20.90
2018-08-17T21:50:48.620Z,20.90
2018-08-17T21:53:16.174Z,20.80
2018-08-17T21:55:43.736Z,20.60
2018-08-17T21:58:11.373Z,20.50
2018-08-17T22:00:38.983Z,20.40
2018-08-17T22:03:12.820Z,20.30
2018-08-17T22:05:40.424Z,20.20
2018-08-17T22:08:08.227Z,20.20
2018-08-17T22:10:36.758Z,20.20
2018-08-17T22:13:04.563Z,20.10
2018-08-17T22:15:32.123Z,20.00
2018-08-17T22:17:59.848Z,20.00
2018-08-17T22:20:27.464Z,19.90
2018-08-17T22:22:55.419Z,19.80
2018-08-17T22:25:23.088Z,19.70
2018-08-17T22:27:50.623Z,19.70
2018-08-17T22:30:23.552Z,19.70
2018-08-17T22:32:51.175Z,19.70
2018-08-17T22:35:19.401Z,19.70
2018-08-17T22:37:47.074Z,19.70
2018-08-17T22:40:14.962Z,19.60
2018-08-17T22:42:44.139Z,19.60
2018-08-17T22:45:12.024Z,19.60
2018-08-17T22:47:39.772Z,19.60
2018-08-17T22:50:08.353Z,19.60
2018-08-17T22:52:36.136Z,19.50
2018-08-17T22:55:07.263Z,19.50
2018-08-17T22:57:34.891Z,19.40
2018-08-17T23:00:30.391Z,19.40
2018-08-17T23:03:00.493Z,19.50
2018-08-17T23:05:29.696Z,19.40
2018-08-17T23:07:57.487Z,19.40
2018-08-17T23:10:26.160Z,19.40
2018-08-17T23:12:54.389Z,19.40
2018-08-17T23:15:22.088Z,19.40
2018-08-17T23:17:51.933Z,19.30
2018-08-17T23:20:25.229Z,19.30
2018-08-17T23:22:57.060Z,19.20
2018-08-17T23:25:24.756Z,19.20
2018-08-17T23:27:53.815Z,19.20
2018-08-17T23:30:22.448Z,19.20
2018-08-17T23:32:50.192Z,19.10
2018-08-17T23:35:18.201Z,19.10
2018-08-17T23:37:45.914Z,19.10
2018-08-17T23:40:13.740Z,19.10
2018-08-17T23:42:42.386Z,19.10
2018-08-17T23:45:12.322Z,19.00
2018-08-17T23:47:40.280Z,19.00
2018-08-17T23:50:09.508Z,19.00
2018-08-17T23:52:38.489Z,18.90
2018-08-17T23:55:07.524Z,18.90
2018-08-17T23:57:35.362Z,18.80
